sensor_id;sensor_type;location;lat;lon;timestamp;pressure;altitude;pressure_sealevel;temperature;humidity
48652;BME280;34442;52.362;-1.302;2023-08-30T00:01:35;99547.28;;;15.11;100.00
48652;BME280;34442;52.362;-1.302;2023-08-30T00:04:01;99542.91;;;15.10;100.00
48652;BME280;34442;52.362;-1.302;2023-08-30T00:06:26;99538.03;;;15.07;100.00
48652;BME280;34442;52.362;-1.302;2023-08-30T00:08:51;99537.44;;;15.05;100.00
48652;BME280;34442;52.362;-1.302;2023-08-30T00:11:17;99529.03;;;15.01;100.00
48652;BME280;34442;52.362;-1.302;2023-08-30T00:13:42;99527.09;;;14.97;100.00
48652;BME280;34442;52.362;-1.302;2023-08-30T00:16:08;99516.72;;;14.88;100.00
48652;BME280;34442;52.362;-1.302;2023-08-30T00:18:33;99514.03;;;14.88;100.00
48652;BME280;34442;52.362;-1.302;2023-08-30T00:20:59;99524.84;;;14.88;100.00
48652;BME280;34442;52.362;-1.302;2023-08-30T00:23:25;99522.13;;;14.88;100.00
48652;BME280;34442;52.362;-1.302;2023-08-30T00:25:50;99526.19;;;14.86;100.00
48652;BME280;34442;52.362;-1.302;2023-08-30T00:28:15;99529.13;;;14.84;100.00
48652;BME280;34442;52.362;-1.302;2023-08-30T00:30:41;99531.28;;;14.82;100.00
48652;BME280;34442;52.362;-1.302;2023-08-30T00:33:06;99532.91;;;14.83;100.00
48652;BME280;34442;52.362;-1.302;2023-08-30T00:35:32;99534.50;;;14.79;100.00
48652;BME280;34442;52.362;-1.302;2023-08-30T00:37:57;99526.34;;;14.74;100.00
48652;BME280;34442;52.362;-1.302;2023-08-30T00:40:26;99529.81;;;14.70;100.00
48652;BME280;34442;52.362;-1.302;2023-08-30T00:42:51;99530.06;;;14.68;100.00
48652;BME280;34442;52.362;-1.302;2023-08-30T00:45:17;99525.97;;;14.66;100.00
48652;BME280;34442;52.362;-1.302;2023-08-30T00:47:43;99523.50;;;14.64;100.00
48652;BME280;34442;52.362;-1.302;2023-08-30T00:50:09;99522.97;;;14.62;100.00
48652;BME280;34442;52.362;-1.302;2023-08-30T00:52:35;99522.16;;;14.61;100.00
48652;BME280;34442;52.362;-1.302;2023-08-30T00:55:00;99513.47;;;14.59;100.00
48652;BME280;34442;52.362;-1.302;2023-08-30T00:57:26;99521.25;;;14.56;100.00
48652;BME280;34442;52.362;-1.302;2023-08-30T00:59:53;99513.16;;;14.56;100.00
48652;BME280;34442;52.362;-1.302;2023-08-30T01:02:18;99510.44;;;14.56;100.00
48652;BME280;34442;52.362;-1.302;2023-08-30T01:04:45;99516.44;;;14.58;100.00
48652;BME280;34442;52.362;-1.302;2023-08-30T01:07:10;99522.34;;;14.55;100.00
48652;BME280;34442;52.362;-1.302;2023-08-30T01:09:36;99511.47;;;14.50;100.00
48652;BME280;34442;52.362;-1.302;2023-08-30T01:12:10;99499.31;;;14.52;100.00
48652;BME280;34442;52.362;-1.302;2023-08-30T01:14:41;99505.78;;;14.51;100.00
48652;BME280;34442;52.362;-1.302;2023-08-30T01:17:10;99507.69;;;14.51;100.00
48652;BME280;34442;52.362;-1.302;2023-08-30T01:22:21;99499.31;;;14.52;100.00
48652;BME280;34442;52.362;-1.302;2023-08-30T01:28:04;99502.28;;;14.51;100.00
48652;BME280;34442;52.362;-1.302;2023-08-30T01:30:34;99501.94;;;14.47;100.00
48652;BME280;34442;52.362;-1.302;2023-08-30T01:33:03;99501.13;;;14.47;100.00
48652;BME280;34442;52.362;-1.302;2023-08-30T01:35:30;99500.00;;;14.43;100.00
48652;BME280;34442;52.362;-1.302;2023-08-30T01:37:58;99496.75;;;14.40;100.00
48652;BME280;34442;52.362;-1.302;2023-08-30T01:40:27;99492.34;;;14.34;100.00
48652;BME280;34442;52.362;-1.302;2023-08-30T01:42:53;99488.28;;;14.32;100.00
48652;BME280;34442;52.362;-1.302;2023-08-30T01:45:20;99481.78;;;14.33;100.00
48652;BME280;34442;52.362;-1.302;2023-08-30T01:47:47;99478.00;;;14.34;100.00
48652;BME280;34442;52.362;-1.302;2023-08-30T01:50:15;99476.09;;;14.34;100.00
48652;BME280;34442;52.362;-1.302;2023-08-30T01:52:41;99470.97;;;14.33;100.00
48652;BME280;34442;52.362;-1.302;2023-08-30T01:55:08;99471.28;;;14.36;100.00
48652;BME280;34442;52.362;-1.302;2023-08-30T01:57:34;99471.50;;;14.35;100.00
48652;BME280;34442;52.362;-1.302;2023-08-30T01:59:59;99478.00;;;14.34;100.00
48652;BME280;34442;52.362;-1.302;2023-08-30T02:02:28;99476.09;;;14.34;100.00
48652;BME280;34442;52.362;-1.302;2023-08-30T02:04:54;99470.66;;;14.29;100.00
48652;BME280;34442;52.362;-1.302;2023-08-30T02:07:25;99474.16;;;14.30;100.00
48652;BME280;34442;52.362;-1.302;2023-08-30T02:10:02;99472.78;;;14.27;100.00
48652;BME280;34442;52.362;-1.302;2023-08-30T02:12:52;99474.94;;;14.25;100.00
48652;BME280;34442;52.362;-1.302;2023-08-30T02:15:19;99465.97;;;14.20;100.00
48652;BME280;34442;52.362;-1.302;2023-08-30T02:17:46;99471.28;;;14.14;100.00
48652;BME280;34442;52.362;-1.302;2023-08-30T02:20:13;99467.22;;;14.12;100.00
48652;BME280;34442;52.362;-1.302;2023-08-30T02:22:39;99469.41;;;14.15;100.00
48652;BME280;34442;52.362;-1.302;2023-08-30T02:25:05;99468.41;;;14.21;100.00
48652;BME280;34442;52.362;-1.302;2023-08-30T02:27:32;99474.63;;;14.22;100.00
48652;BME280;34442;52.362;-1.302;2023-08-30T02:29:58;99474.44;;;14.28;100.00
48652;BME280;34442;52.362;-1.302;2023-08-30T02:32:23;99471.19;;;14.31;100.00
48652;BME280;34442;52.362;-1.302;2023-08-30T02:34:50;99470.16;;;14.32;100.00
48652;BME280;34442;52.362;-1.302;2023-08-30T02:37:16;99469.13;;;14.38;100.00
48652;BME280;34442;52.362;-1.302;2023-08-30T02:39:41;99469.97;;;14.44;100.00
48652;BME280;34442;52.362;-1.302;2023-08-30T02:42:07;99464.84;;;14.43;100.00
48652;BME280;34442;52.362;-1.302;2023-08-30T02:44:32;99473.53;;;14.45;100.00
48652;BME280;34442;52.362;-1.302;2023-08-30T02:46:58;99468.66;;;14.47;100.00
48652;BME280;34442;52.362;-1.302;2023-08-30T02:49:23;99465.69;;;14.48;100.00
48652;BME280;34442;52.362;-1.302;2023-08-30T02:51:48;99466.31;;;14.50;100.00
48652;BME280;34442;52.362;-1.302;2023-08-30T02:54:14;99459.00;;;14.51;100.00
48652;BME280;34442;52.362;-1.302;2023-08-30T02:56:44;99463.09;;;14.53;100.00
48652;BME280;34442;52.362;-1.302;2023-08-30T02:59:10;99463.09;;;14.53;100.00
48652;BME280;34442;52.362;-1.302;2023-08-30T03:01:35;99466.13;;;14.57;100.00
48652;BME280;34442;52.362;-1.302;2023-08-30T03:04:01;99467.16;;;14.56;100.00
48652;BME280;34442;52.362;-1.302;2023-08-30T03:06:26;99463.34;;;14.52;100.00
48652;BME280;34442;52.362;-1.302;2023-08-30T03:08:53;99469.56;;;14.52;100.00
48652;BME280;34442;52.362;-1.302;2023-08-30T03:11:19;99457.44;;;14.55;100.00
48652;BME280;34442;52.362;-1.302;2023-08-30T03:13:44;99465.22;;;14.51;100.00
48652;BME280;34442;52.362;-1.302;2023-08-30T03:16:16;99462.28;;;14.53;100.00
48652;BME280;34442;52.362;-1.302;2023-08-30T03:18:43;99458.47;;;14.49;100.00
48652;BME280;34442;52.362;-1.302;2023-08-30T03:21:09;99460.56;;;14.47;100.00
48652;BME280;34442;52.362;-1.302;2023-08-30T03:23:36;99463.34;;;14.52;100.00
48652;BME280;34442;52.362;-1.302;2023-08-30T03:26:12;99463.91;;;14.54;100.00
48652;BME280;34442;52.362;-1.302;2023-08-30T03:28:39;99458.00;;;14.57;100.00
48652;BME280;34442;52.362;-1.302;2023-08-30T03:31:14;99459.63;;;14.58;100.00
48652;BME280;34442;52.362;-1.302;2023-08-30T03:33:40;99460.13;;;14.55;100.00
48652;BME280;34442;52.362;-1.302;2023-08-30T03:36:07;99462.06;;;14.59;100.00
48652;BME280;34442;52.362;-1.302;2023-08-30T03:38:33;99471.00;;;14.60;100.00
48652;BME280;34442;52.362;-1.302;2023-08-30T03:40:58;99469.63;;;14.57;100.00
48652;BME280;34442;52.362;-1.302;2023-08-30T03:43:24;99461.25;;;14.59;100.00
48652;BME280;34442;52.362;-1.302;2023-08-30T03:45:49;99457.78;;;14.63;100.00
48652;BME280;34442;52.362;-1.302;2023-08-30T03:48:15;99469.19;;;14.66;100.00
48652;BME280;34442;52.362;-1.302;2023-08-30T03:50:40;99463.53;;;14.72;100.00
48652;BME280;34442;52.362;-1.302;2023-08-30T03:53:05;99459.50;;;14.75;100.00
48652;BME280;34442;52.362;-1.302;2023-08-30T03:55:31;99456.22;;;14.73;100.00
48652;BME280;34442;52.362;-1.302;2023-08-30T03:57:59;99455.38;;;14.67;100.00
48652;BME280;34442;52.362;-1.302;2023-08-30T04:00:24;99451.28;;;14.64;100.00
48652;BME280;34442;52.362;-1.302;2023-08-30T04:02:50;99452.69;;;14.67;100.00
48652;BME280;34442;52.362;-1.302;2023-08-30T04:05:15;99458.09;;;14.67;100.00
48652;BME280;34442;52.362;-1.302;2023-08-30T04:07:40;99448.84;;;14.63;100.00
48652;BME280;34442;52.362;-1.302;2023-08-30T04:10:06;99455.34;;;14.62;100.00
48652;BME280;34442;52.362;-1.302;2023-08-30T04:12:33;99453.13;;;14.59;100.00
48652;BME280;34442;52.362;-1.302;2023-08-30T04:14:59;99455.03;;;14.58;100.00
48652;BME280;34442;52.362;-1.302;2023-08-30T04:17:25;99460.94;;;14.55;100.00
48652;BME280;34442;52.362;-1.302;2023-08-30T04:19:53;99451.50;;;14.58;100.00
48652;BME280;34442;52.362;-1.302;2023-08-30T04:22:19;99445.22;;;14.52;100.00
48652;BME280;34442;52.362;-1.302;2023-08-30T04:24:45;99440.81;;;14.46;100.00
48652;BME280;34442;52.362;-1.302;2023-08-30T04:27:11;99450.50;;;14.42;100.00
48652;BME280;34442;52.362;-1.302;2023-08-30T04:29:36;99450.00;;;14.45;100.00
48652;BME280;34442;52.362;-1.302;2023-08-30T04:32:02;99443.53;;;14.46;100.00
48652;BME280;34442;52.362;-1.302;2023-08-30T04:34:27;99440.53;;;14.48;100.00
48652;BME280;34442;52.362;-1.302;2023-08-30T04:36:54;99451.06;;;14.44;100.00
48652;BME280;34442;52.362;-1.302;2023-08-30T04:39:19;99443.97;;;14.38;100.00
48652;BME280;34442;52.362;-1.302;2023-08-30T04:41:45;99439.88;;;14.35;100.00
48652;BME280;34442;52.362;-1.302;2023-08-30T04:44:10;99445.50;;;14.29;100.00
48652;BME280;34442;52.362;-1.302;2023-08-30T04:46:36;99442.00;;;14.28;100.00
48652;BME280;34442;52.362;-1.302;2023-08-30T04:49:01;99436.31;;;14.30;100.00
48652;BME280;34442;52.362;-1.302;2023-08-30T04:51:26;99442.31;;;14.32;100.00
48652;BME280;34442;52.362;-1.302;2023-08-30T04:53:52;99440.91;;;14.29;100.00
48652;BME280;34442;52.362;-1.302;2023-08-30T04:56:17;99438.97;;;14.25;100.00
48652;BME280;34442;52.362;-1.302;2023-08-30T04:58:43;99438.16;;;14.24;100.00
48652;BME280;34442;52.362;-1.302;2023-08-30T05:01:09;99443.03;;;14.27;100.00
48652;BME280;34442;52.362;-1.302;2023-08-30T05:03:35;99442.75;;;14.24;100.00
48652;BME280;34442;52.362;-1.302;2023-08-30T05:06:00;99443.88;;;14.28;100.00
48652;BME280;34442;52.362;-1.302;2023-08-30T05:08:26;99453.31;;;14.25;100.00
48652;BME280;34442;52.362;-1.302;2023-08-30T05:10:54;99444.38;;;14.25;100.00
48652;BME280;34442;52.362;-1.302;2023-08-30T05:13:20;99450.41;;;14.32;100.00
48652;BME280;34442;52.362;-1.302;2023-08-30T05:15:45;99452.22;;;14.26;100.00
48652;BME280;34442;52.362;-1.302;2023-08-30T05:18:11;99460.16;;;14.33;100.00
48652;BME280;34442;52.362;-1.302;2023-08-30T05:20:36;99460.91;;;14.28;100.00
48652;BME280;34442;52.362;-1.302;2023-08-30T05:23:02;99468.72;;;14.25;100.00
48652;BME280;34442;52.362;-1.302;2023-08-30T05:25:28;99461.91;;;14.22;100.00
48652;BME280;34442;52.362;-1.302;2023-08-30T05:27:53;99466.25;;;14.23;100.00
48652;BME280;34442;52.362;-1.302;2023-08-30T05:30:19;99469.16;;;14.17;100.00
48652;BME280;34442;52.362;-1.302;2023-08-30T05:32:44;99468.84;;;14.13;100.00
48652;BME280;34442;52.362;-1.302;2023-08-30T05:35:10;99464.25;;;14.13;100.00
48652;BME280;34442;52.362;-1.302;2023-08-30T05:37:35;99467.75;;;14.14;100.00
48652;BME280;34442;52.362;-1.302;2023-08-30T05:40:01;99465.28;;;14.07;100.00
48652;BME280;34442;52.362;-1.302;2023-08-30T05:42:26;99472.53;;;14.07;100.00
48652;BME280;34442;52.362;-1.302;2023-08-30T05:44:53;99465.56;;;14.11;100.00
48652;BME280;34442;52.362;-1.302;2023-08-30T05:47:18;99473.13;;;14.09;100.00
48652;BME280;34442;52.362;-1.302;2023-08-30T05:49:44;99460.69;;;14.08;100.00
48652;BME280;34442;52.362;-1.302;2023-08-30T05:52:09;99470.34;;;14.04;100.00
48652;BME280;34442;52.362;-1.302;2023-08-30T05:54:35;99466.09;;;14.08;100.00
48652;BME280;34442;52.362;-1.302;2023-08-30T05:57:00;99467.97;;;14.07;100.00
48652;BME280;34442;52.362;-1.302;2023-08-30T05:59:26;99462.25;;;14.04;100.00
48652;BME280;34442;52.362;-1.302;2023-08-30T06:01:51;99467.13;;;14.07;100.00
48652;BME280;34442;52.362;-1.302;2023-08-30T06:04:16;99469.34;;;14.10;100.00
48652;BME280;34442;52.362;-1.302;2023-08-30T06:06:42;99467.66;;;14.04;100.00
48652;BME280;34442;52.362;-1.302;2023-08-30T06:09:10;99467.34;;;14.00;100.00
48652;BME280;34442;52.362;-1.302;2023-08-30T06:11:37;99467.66;;;14.04;100.00
48652;BME280;34442;52.362;-1.302;2023-08-30T06:14:02;99470.28;;;13.99;100.00
48652;BME280;34442;52.362;-1.302;2023-08-30T06:16:30;99466.00;;;14.03;100.00
48652;BME280;34442;52.362;-1.302;2023-08-30T06:18:57;99463.13;;;14.09;100.00
48652;BME280;34442;52.362;-1.302;2023-08-30T06:21:24;99470.97;;;14.11;100.00
48652;BME280;34442;52.362;-1.302;2023-08-30T06:23:50;99465.31;;;14.12;100.00
48652;BME280;34442;52.362;-1.302;2023-08-30T06:26:15;99468.84;;;14.13;100.00
48652;BME280;34442;52.362;-1.302;2023-08-30T06:28:41;99469.59;;;14.08;100.00
48652;BME280;34442;52.362;-1.302;2023-08-30T06:31:06;99467.72;;;14.09;100.00
48652;BME280;34442;52.362;-1.302;2023-08-30T06:33:32;99468.03;;;14.12;100.00
48652;BME280;34442;52.362;-1.302;2023-08-30T06:35:57;99473.22;;;14.19;100.00
48652;BME280;34442;52.362;-1.302;2023-08-30T06:38:22;99486.88;;;14.29;100.00
48652;BME280;34442;52.362;-1.302;2023-08-30T06:40:48;99488.19;;;14.27;100.00
48652;BME280;34442;52.362;-1.302;2023-08-30T06:43:14;99480.84;;;14.22;100.00
48652;BME280;34442;52.362;-1.302;2023-08-30T06:45:41;99492.53;;;14.28;100.00
48652;BME280;34442;52.362;-1.302;2023-08-30T06:48:06;99478.81;;;14.34;100.00
48652;BME280;34442;52.362;-1.302;2023-08-30T06:50:33;99476.97;;;14.40;100.00
48652;BME280;34442;52.362;-1.302;2023-08-30T06:52:58;99483.72;;;14.37;100.00
48652;BME280;34442;52.362;-1.302;2023-08-30T06:55:23;99481.34;;;14.41;100.00
48652;BME280;34442;52.362;-1.302;2023-08-30T06:57:49;99478.41;;;14.48;100.00
48652;BME280;34442;52.362;-1.302;2023-08-30T07:00:15;99483.81;;;14.48;100.00
48652;BME280;34442;52.362;-1.302;2023-08-30T07:02:41;99482.59;;;14.55;100.00
48652;BME280;34442;52.362;-1.302;2023-08-30T07:05:10;99488.03;;;14.60;100.00
48652;BME280;34442;52.362;-1.302;2023-08-30T07:07:35;99492.13;;;14.63;100.00
48652;BME280;34442;52.362;-1.302;2023-08-30T07:10:01;99487.84;;;14.67;100.00
48652;BME280;34442;52.362;-1.302;2023-08-30T07:12:28;99495.50;;;14.75;100.00
48652;BME280;34442;52.362;-1.302;2023-08-30T07:14:53;99494.50;;;14.81;100.00
48652;BME280;34442;52.362;-1.302;2023-08-30T07:17:19;99493.41;;;14.82;100.00
48652;BME280;34442;52.362;-1.302;2023-08-30T07:19:44;99501.25;;;14.84;100.00
48652;BME280;34442;52.362;-1.302;2023-08-30T07:22:10;99494.03;;;14.89;100.00
48652;BME280;34442;52.362;-1.302;2023-08-30T07:24:36;99496.78;;;14.95;100.00
48652;BME280;34442;52.362;-1.302;2023-08-30T07:27:01;99497.38;;;15.02;100.00
48652;BME280;34442;52.362;-1.302;2023-08-30T07:29:26;99498.19;;;15.02;100.00
48652;BME280;34442;52.362;-1.302;2023-08-30T07:31:52;99494.44;;;15.08;100.00
48652;BME280;34442;52.362;-1.302;2023-08-30T07:34:18;99493.03;;;15.01;100.00
48652;BME280;34442;52.362;-1.302;2023-08-30T07:36:44;99485.31;;;15.14;100.00
48652;BME280;34442;52.362;-1.302;2023-08-30T07:39:09;99505.38;;;15.19;100.00
48652;BME280;34442;52.362;-1.302;2023-08-30T07:41:35;99494.88;;;15.27;100.00
48652;BME280;34442;52.362;-1.302;2023-08-30T07:44:01;99497.00;;;15.25;100.00
48652;BME280;34442;52.362;-1.302;2023-08-30T07:46:26;99500.63;;;15.36;100.00
48652;BME280;34442;52.362;-1.302;2023-08-30T07:48:51;99494.72;;;15.44;100.00
48652;BME280;34442;52.362;-1.302;2023-08-30T07:51:17;99501.00;;;15.55;100.00
48652;BME280;34442;52.362;-1.302;2023-08-30T07:53:42;99505.53;;;15.76;100.00
48652;BME280;34442;52.362;-1.302;2023-08-30T07:56:08;99500.66;;;15.78;100.00
48652;BME280;34442;52.362;-1.302;2023-08-30T07:58:33;99496.63;;;15.81;100.00
48652;BME280;34442;52.362;-1.302;2023-08-30T08:00:59;99488.00;;;15.89;100.00
48652;BME280;34442;52.362;-1.302;2023-08-30T08:03:27;99496.16;;;15.99;100.00
48652;BME280;34442;52.362;-1.302;2023-08-30T08:05:53;99492.91;;;16.02;100.00
48652;BME280;34442;52.362;-1.302;2023-08-30T08:08:18;99487.28;;;16.14;100.00
48652;BME280;34442;52.362;-1.302;2023-08-30T08:10:44;99495.75;;;16.33;100.00
48652;BME280;34442;52.362;-1.302;2023-08-30T08:13:09;99485.75;;;16.44;100.00
48652;BME280;34442;52.362;-1.302;2023-08-30T08:15:35;99482.22;;;16.48;100.00
48652;BME280;34442;52.362;-1.302;2023-08-30T08:18:01;99486.84;;;16.58;100.00
48652;BME280;34442;52.362;-1.302;2023-08-30T08:20:28;99485.75;;;16.54;100.00
48652;BME280;34442;52.362;-1.302;2023-08-30T08:22:54;99484.41;;;16.61;100.00
48652;BME280;34442;52.362;-1.302;2023-08-30T08:25:19;99486.84;;;16.53;100.00
48652;BME280;34442;52.362;-1.302;2023-08-30T08:27:46;99493.84;;;16.33;100.00
48652;BME280;34442;52.362;-1.302;2023-08-30T08:30:12;99500.63;;;16.26;100.00
48652;BME280;34442;52.362;-1.302;2023-08-30T08:32:37;99489.50;;;16.27;100.00
48652;BME280;34442;52.362;-1.302;2023-08-30T08:35:03;99488.97;;;16.35;100.00
48652;BME280;34442;52.362;-1.302;2023-08-30T08:37:29;99493.88;;;16.38;100.00
48652;BME280;34442;52.362;-1.302;2023-08-30T08:39:54;99499.94;;;16.71;100.00
48652;BME280;34442;52.362;-1.302;2023-08-30T08:42:20;99500.41;;;16.58;100.00
48652;BME280;34442;52.362;-1.302;2023-08-30T08:44:51;99502.13;;;16.74;100.00
48652;BME280;34442;52.362;-1.302;2023-08-30T08:47:20;99493.19;;;16.89;100.00
48652;BME280;34442;52.362;-1.302;2023-08-30T08:49:46;99494.25;;;16.78;100.00
48652;BME280;34442;52.362;-1.302;2023-08-30T08:52:15;99487.97;;;16.72;100.00
48652;BME280;34442;52.362;-1.302;2023-08-30T08:54:40;99492.63;;;16.82;100.00
48652;BME280;34442;52.362;-1.302;2023-08-30T08:57:07;99487.22;;;16.92;100.00
48652;BME280;34442;52.362;-1.302;2023-08-30T08:59:32;99486.13;;;16.98;100.00
48652;BME280;34442;52.362;-1.302;2023-08-30T09:01:59;99477.19;;;17.13;100.00
48652;BME280;34442;52.362;-1.302;2023-08-30T09:04:25;99481.50;;;16.99;100.00
48652;BME280;34442;52.362;-1.302;2023-08-30T09:06:51;99473.94;;;16.96;100.00
48652;BME280;34442;52.362;-1.302;2023-08-30T09:09:16;99476.66;;;17.16;100.00
48652;BME280;34442;52.362;-1.302;2023-08-30T09:11:42;99483.97;;;17.16;100.00
48652;BME280;34442;52.362;-1.302;2023-08-30T09:14:08;99478.50;;;17.36;100.00
48652;BME280;34442;52.362;-1.302;2023-08-30T09:16:34;99481.00;;;17.32;100.00
48652;BME280;34442;52.362;-1.302;2023-08-30T09:19:01;99485.59;;;17.32;100.00
48652;BME280;34442;52.362;-1.302;2023-08-30T09:21:28;99479.88;;;17.39;100.00
48652;BME280;34442;52.362;-1.302;2023-08-30T09:23:57;99488.81;;;17.44;100.00
48652;BME280;34442;52.362;-1.302;2023-08-30T09:26:23;99483.72;;;17.32;100.00
48652;BME280;34442;52.362;-1.302;2023-08-30T09:28:49;99490.22;;;17.26;100.00
48652;BME280;34442;52.362;-1.302;2023-08-30T09:31:18;99484.25;;;17.24;100.00
48652;BME280;34442;52.362;-1.302;2023-08-30T09:33:46;99488.84;;;17.24;100.00
48652;BME280;34442;52.362;-1.302;2023-08-30T09:36:14;99483.41;;;17.24;100.00
48652;BME280;34442;52.362;-1.302;2023-08-30T09:38:40;99480.72;;;17.19;100.00
48652;BME280;34442;52.362;-1.302;2023-08-30T09:41:06;99486.41;;;17.32;100.00
48652;BME280;34442;52.362;-1.302;2023-08-30T09:43:34;99482.34;;;17.25;100.00
48652;BME280;34442;52.362;-1.302;2023-08-30T09:46:04;99482.88;;;17.42;100.00
48652;BME280;34442;52.362;-1.302;2023-08-30T09:48:34;99480.41;;;17.35;100.00
48652;BME280;34442;52.362;-1.302;2023-08-30T09:51:03;99483.13;;;17.61;100.00
48652;BME280;34442;52.362;-1.302;2023-08-30T09:53:34;99477.09;;;17.69;99.27
48652;BME280;34442;52.362;-1.302;2023-08-30T09:56:03;99476.53;;;17.93;98.63
48652;BME280;34442;52.362;-1.302;2023-08-30T09:58:30;99475.25;;;18.34;97.25
48652;BME280;34442;52.362;-1.302;2023-08-30T10:00:56;99474.06;;;18.56;96.34
48652;BME280;34442;52.362;-1.302;2023-08-30T10:03:22;99471.81;;;18.63;96.19
48652;BME280;34442;52.362;-1.302;2023-08-30T10:05:48;99469.97;;;18.53;96.31
48652;BME280;34442;52.362;-1.302;2023-08-30T10:08:14;99469.97;;;18.53;96.48
48652;BME280;34442;52.362;-1.302;2023-08-30T10:10:39;99464.09;;;18.36;97.08
48652;BME280;34442;52.362;-1.302;2023-08-30T10:13:06;99472.94;;;18.07;97.45
48652;BME280;34442;52.362;-1.302;2023-08-30T10:15:33;99471.56;;;18.05;97.90
48652;BME280;34442;52.362;-1.302;2023-08-30T10:18:01;99477.63;;;17.81;97.37
48652;BME280;34442;52.362;-1.302;2023-08-30T10:20:28;99479.56;;;17.66;98.35
48652;BME280;34442;52.362;-1.302;2023-08-30T10:22:55;99490.69;;;17.69;97.88
48652;BME280;34442;52.362;-1.302;2023-08-30T10:25:29;99480.94;;;17.58;98.04
48652;BME280;34442;52.362;-1.302;2023-08-30T10:27:55;99492.94;;;17.36;98.84
48652;BME280;34442;52.362;-1.302;2023-08-30T10:30:21;99486.38;;;17.48;97.94
48652;BME280;34442;52.362;-1.302;2023-08-30T10:32:48;99491.81;;;17.58;97.52
48652;BME280;34442;52.362;-1.302;2023-08-30T10:35:15;99491.81;;;17.58;96.66
48652;BME280;34442;52.362;-1.302;2023-08-30T10:37:41;99489.28;;;17.97;94.83
48652;BME280;34442;52.362;-1.302;2023-08-30T10:40:08;99481.59;;;18.20;93.73
48652;BME280;34442;52.362;-1.302;2023-08-30T10:42:34;99479.84;;;18.44;91.43
48652;BME280;34442;52.362;-1.302;2023-08-30T10:45:04;99478.19;;;18.43;91.89
48652;BME280;34442;52.362;-1.302;2023-08-30T10:47:31;99471.81;;;18.19;92.20
48652;BME280;34442;52.362;-1.302;2023-08-30T10:49:58;99486.28;;;17.94;93.68
48652;BME280;34442;52.362;-1.302;2023-08-30T10:52:25;99483.56;;;17.94;93.52
48652;BME280;34442;52.362;-1.302;2023-08-30T10:54:51;99479.19;;;18.08;93.31
48652;BME280;34442;52.362;-1.302;2023-08-30T10:57:26;99484.50;;;18.33;89.26
48652;BME280;34442;52.362;-1.302;2023-08-30T11:00:08;99468.06;;;18.54;87.65
48652;BME280;34442;52.362;-1.302;2023-08-30T11:02:37;99464.69;;;18.77;90.01
48652;BME280;34442;52.362;-1.302;2023-08-30T11:05:05;99460.91;;;19.07;88.06
48652;BME280;34442;52.362;-1.302;2023-08-30T11:07:31;99459.34;;;19.01;88.79
48652;BME280;34442;52.362;-1.302;2023-08-30T11:09:57;99467.72;;;19.10;88.96
48652;BME280;34442;52.362;-1.302;2023-08-30T11:12:23;99459.06;;;19.32;87.66
48652;BME280;34442;52.362;-1.302;2023-08-30T11:14:49;99474.47;;;19.47;87.37
48652;BME280;34442;52.362;-1.302;2023-08-30T11:17:18;99468.19;;;19.46;86.54
48652;BME280;34442;52.362;-1.302;2023-08-30T11:19:44;99474.28;;;19.38;87.28
48652;BME280;34442;52.362;-1.302;2023-08-30T11:22:12;99480.13;;;18.87;88.98
48652;BME280;34442;52.362;-1.302;2023-08-30T11:24:37;99478.63;;;19.05;89.42
48652;BME280;34442;52.362;-1.302;2023-08-30T11:27:03;99488.09;;;18.78;90.79
48652;BME280;34442;52.362;-1.302;2023-08-30T11:29:29;99488.25;;;18.43;91.88
48652;BME280;34442;52.362;-1.302;2023-08-30T11:31:54;99491.13;;;18.67;91.55
48652;BME280;34442;52.362;-1.302;2023-08-30T11:34:20;99483.03;;;18.56;92.17
48652;BME280;34442;52.362;-1.302;2023-08-30T11:36:50;99482.72;;;18.63;91.19
48652;BME280;34442;52.362;-1.302;2023-08-30T11:39:16;99472.91;;;18.72;90.75
48652;BME280;34442;52.362;-1.302;2023-08-30T11:41:43;99477.25;;;18.73;89.30
48652;BME280;34442;52.362;-1.302;2023-08-30T11:44:08;99473.56;;;18.88;88.11
48652;BME280;34442;52.362;-1.302;2023-08-30T11:46:34;99462.97;;;18.87;88.36
48652;BME280;34442;52.362;-1.302;2023-08-30T11:49:00;99459.13;;;18.93;88.18
48652;BME280;34442;52.362;-1.302;2023-08-30T11:51:25;99454.09;;;19.05;87.91
48652;BME280;34442;52.362;-1.302;2023-08-30T11:53:52;99473.19;;;19.05;88.02
48652;BME280;34442;52.362;-1.302;2023-08-30T11:56:18;99472.19;;;19.25;87.55
48652;BME280;34442;52.362;-1.302;2023-08-30T11:58:44;99470.63;;;19.48;86.56
48652;BME280;34442;52.362;-1.302;2023-08-30T12:01:09;99476.41;;;19.41;87.11
48652;BME280;34442;52.362;-1.302;2023-08-30T12:03:35;99478.25;;;19.22;86.49
48652;BME280;34442;52.362;-1.302;2023-08-30T12:06:01;99470.03;;;18.88;89.45
48652;BME280;34442;52.362;-1.302;2023-08-30T12:08:29;99463.03;;;18.81;90.43
48652;BME280;34442;52.362;-1.302;2023-08-30T12:10:55;99475.88;;;18.71;91.89
48652;BME280;34442;52.362;-1.302;2023-08-30T12:15:51;99491.31;;;18.31;96.24
48652;BME280;34442;52.362;-1.302;2023-08-30T12:18:16;99496.69;;;17.56;100.00
48652;BME280;34442;52.362;-1.302;2023-08-30T12:20:55;99494.28;;;17.39;100.00
48652;BME280;34442;52.362;-1.302;2023-08-30T12:23:25;99479.34;;;17.42;100.00
48652;BME280;34442;52.362;-1.302;2023-08-30T12:26:07;99486.09;;;17.59;100.00
48652;BME280;34442;52.362;-1.302;2023-08-30T12:28:35;99480.94;;;17.48;100.00
48652;BME280;34442;52.362;-1.302;2023-08-30T12:31:01;99477.94;;;17.70;100.00
48652;BME280;34442;52.362;-1.302;2023-08-30T12:33:27;99468.94;;;17.79;100.00
48652;BME280;34442;52.362;-1.302;2023-08-30T12:35:57;99470.31;;;17.72;100.00
48652;BME280;34442;52.362;-1.302;2023-08-30T12:38:23;99466.75;;;17.81;100.00
48652;BME280;34442;52.362;-1.302;2023-08-30T12:40:51;99465.41;;;17.74;100.00
48652;BME280;34442;52.362;-1.302;2023-08-30T12:43:17;99466.25;;;17.79;100.00
48652;BME280;34442;52.362;-1.302;2023-08-30T12:45:44;99465.69;;;17.77;100.00
48652;BME280;34442;52.362;-1.302;2023-08-30T12:48:11;99458.09;;;17.59;100.00